Terminal Aerodrome Forecast
Issued by NWS

Home | Current Version | Previous Version | Text Only | Print | Product List | Glossary On
Versions: 1 2 3 4 5 6 7 8 9 10 11 12 13 14 15
000
FTUS45 KFGZ 251100
TAFPRC
TAF
KPRC 251120Z 2512/2612 18005KT P6SM SCT120
     FM251900 21008G14KT P6SM BKN100
      TEMPO 2519/2523 -TSRA BKN080CB
     FM260200 20006KT P6SM SCT110 BKN200=

USA.gov is the U.S. government's official web portal to all federal, state and local government web resources and services.